sensor_id;sensor_type;location;lat;lon;timestamp;P1;durP1;ratioP1;P2;durP2;ratioP2
40599;SDS011;26309;50.924;4.754;2023-04-08T00:02:16;16.67;;;5.70;;
40599;SDS011;26309;50.924;4.754;2023-04-08T00:04:44;14.23;;;5.57;;
40599;SDS011;26309;50.924;4.754;2023-04-08T00:07:10;20.17;;;7.77;;
40599;SDS011;26309;50.924;4.754;2023-04-08T00:09:36;22.40;;;9.02;;
40599;SDS011;26309;50.924;4.754;2023-04-08T00:12:04;21.63;;;8.80;;
40599;SDS011;26309;50.924;4.754;2023-04-08T00:14:29;17.17;;;9.00;;
40599;SDS011;26309;50.924;4.754;2023-04-08T00:16:56;21.05;;;7.43;;
40599;SDS011;26309;50.924;4.754;2023-04-08T00:19:21;13.95;;;6.82;;
40599;SDS011;26309;50.924;4.754;2023-04-08T00:21:47;21.95;;;7.72;;
40599;SDS011;26309;50.924;4.754;2023-04-08T00:24:13;21.07;;;8.23;;
40599;SDS011;26309;50.924;4.754;2023-04-08T00:26:39;18.07;;;7.57;;
40599;SDS011;26309;50.924;4.754;2023-04-08T00:29:05;15.73;;;7.30;;
40599;SDS011;26309;50.924;4.754;2023-04-08T00:31:31;17.38;;;7.85;;
40599;SDS011;26309;50.924;4.754;2023-04-08T00:33:57;18.47;;;7.70;;
40599;SDS011;26309;50.924;4.754;2023-04-08T00:36:23;18.93;;;7.50;;
40599;SDS011;26309;50.924;4.754;2023-04-08T00:38:48;19.53;;;7.93;;
40599;SDS011;26309;50.924;4.754;2023-04-08T00:41:14;22.45;;;8.05;;
40599;SDS011;26309;50.924;4.754;2023-04-08T00:43:40;18.52;;;6.60;;
40599;SDS011;26309;50.924;4.754;2023-04-08T00:46:06;19.63;;;6.70;;
40599;SDS011;26309;50.924;4.754;2023-04-08T00:48:32;13.85;;;6.00;;
40599;SDS011;26309;50.924;4.754;2023-04-08T00:50:58;16.98;;;6.43;;
40599;SDS011;26309;50.924;4.754;2023-04-08T00:53:24;13.57;;;6.50;;
40599;SDS011;26309;50.924;4.754;2023-04-08T00:55:50;14.50;;;7.03;;
40599;SDS011;26309;50.924;4.754;2023-04-08T00:58:16;17.00;;;6.45;;
40599;SDS011;26309;50.924;4.754;2023-04-08T01:00:43;23.48;;;9.10;;
40599;SDS011;26309;50.924;4.754;2023-04-08T01:03:29;22.30;;;8.20;;
40599;SDS011;26309;50.924;4.754;2023-04-08T01:09:07;15.60;;;6.07;;
40599;SDS011;26309;50.924;4.754;2023-04-08T01:11:34;8.98;;;5.78;;
40599;SDS011;26309;50.924;4.754;2023-04-08T01:14:10;18.97;;;6.30;;
40599;SDS011;26309;50.924;4.754;2023-04-08T01:16:41;15.95;;;6.30;;
40599;SDS011;26309;50.924;4.754;2023-04-08T01:19:10;15.23;;;6.40;;
40599;SDS011;26309;50.924;4.754;2023-04-08T01:21:47;13.67;;;6.47;;
40599;SDS011;26309;50.924;4.754;2023-04-08T01:24:19;21.13;;;7.17;;
40599;SDS011;26309;50.924;4.754;2023-04-08T01:26:52;15.95;;;6.75;;
40599;SDS011;26309;50.924;4.754;2023-04-08T01:29:21;20.60;;;7.97;;
40599;SDS011;26309;50.924;4.754;2023-04-08T01:31:49;21.30;;;7.57;;
40599;SDS011;26309;50.924;4.754;2023-04-08T01:34:17;15.73;;;7.83;;
40599;SDS011;26309;50.924;4.754;2023-04-08T01:36:45;20.70;;;8.13;;
40599;SDS011;26309;50.924;4.754;2023-04-08T01:39:12;24.93;;;10.60;;
40599;SDS011;26309;50.924;4.754;2023-04-08T01:41:41;25.17;;;9.77;;
40599;SDS011;26309;50.924;4.754;2023-04-08T01:44:07;28.13;;;8.20;;
40599;SDS011;26309;50.924;4.754;2023-04-08T01:46:35;17.30;;;7.70;;
40599;SDS011;26309;50.924;4.754;2023-04-08T01:49:03;19.87;;;7.23;;
40599;SDS011;26309;50.924;4.754;2023-04-08T01:51:30;25.37;;;8.40;;
40599;SDS011;26309;50.924;4.754;2023-04-08T01:53:57;21.45;;;8.93;;
40599;SDS011;26309;50.924;4.754;2023-04-08T01:56:23;21.03;;;9.90;;
40599;SDS011;26309;50.924;4.754;2023-04-08T01:58:53;21.37;;;9.03;;
40599;SDS011;26309;50.924;4.754;2023-04-08T02:01:21;20.10;;;8.15;;
40599;SDS011;26309;50.924;4.754;2023-04-08T02:03:49;14.65;;;7.50;;
40599;SDS011;26309;50.924;4.754;2023-04-08T02:06:17;20.23;;;8.43;;
40599;SDS011;26309;50.924;4.754;2023-04-08T02:08:43;24.70;;;10.70;;
40599;SDS011;26309;50.924;4.754;2023-04-08T02:11:09;28.90;;;10.37;;
40599;SDS011;26309;50.924;4.754;2023-04-08T02:13:35;22.40;;;9.03;;
40599;SDS011;26309;50.924;4.754;2023-04-08T02:16:46;21.57;;;9.60;;
40599;SDS011;26309;50.924;4.754;2023-04-08T02:19:06;30.20;;;9.73;;
40599;SDS011;26309;50.924;4.754;2023-04-08T02:21:42;21.23;;;8.67;;
40599;SDS011;26309;50.924;4.754;2023-04-08T02:24:12;16.30;;;7.25;;
40599;SDS011;26309;50.924;4.754;2023-04-08T02:26:41;15.25;;;7.80;;
40599;SDS011;26309;50.924;4.754;2023-04-08T02:29:13;19.33;;;8.02;;
40599;SDS011;26309;50.924;4.754;2023-04-08T02:31:40;17.50;;;9.13;;
40599;SDS011;26309;50.924;4.754;2023-04-08T02:34:08;18.93;;;8.67;;
40599;SDS011;26309;50.924;4.754;2023-04-08T02:36:35;22.37;;;8.93;;
40599;SDS011;26309;50.924;4.754;2023-04-08T02:39:03;27.30;;;8.88;;
40599;SDS011;26309;50.924;4.754;2023-04-08T02:41:29;23.17;;;9.37;;
40599;SDS011;26309;50.924;4.754;2023-04-08T02:43:55;24.80;;;8.87;;
40599;SDS011;26309;50.924;4.754;2023-04-08T02:46:21;20.73;;;8.68;;
40599;SDS011;26309;50.924;4.754;2023-04-08T02:48:47;22.92;;;9.25;;
40599;SDS011;26309;50.924;4.754;2023-04-08T02:51:13;21.33;;;9.33;;
40599;SDS011;26309;50.924;4.754;2023-04-08T02:53:39;19.48;;;8.10;;
40599;SDS011;26309;50.924;4.754;2023-04-08T02:56:05;20.00;;;8.43;;
40599;SDS011;26309;50.924;4.754;2023-04-08T02:58:34;21.27;;;9.20;;
40599;SDS011;26309;50.924;4.754;2023-04-08T03:01:00;19.83;;;8.73;;
40599;SDS011;26309;50.924;4.754;2023-04-08T03:03:26;22.95;;;9.82;;
40599;SDS011;26309;50.924;4.754;2023-04-08T03:05:56;20.37;;;9.73;;
40599;SDS011;26309;50.924;4.754;2023-04-08T03:08:23;24.57;;;9.00;;
40599;SDS011;26309;50.924;4.754;2023-04-08T03:10:48;28.57;;;9.93;;
40599;SDS011;26309;50.924;4.754;2023-04-08T03:13:15;18.60;;;8.53;;
40599;SDS011;26309;50.924;4.754;2023-04-08T03:15:41;27.47;;;9.83;;
40599;SDS011;26309;50.924;4.754;2023-04-08T03:18:07;34.63;;;11.63;;
40599;SDS011;26309;50.924;4.754;2023-04-08T03:20:33;24.83;;;9.57;;
40599;SDS011;26309;50.924;4.754;2023-04-08T03:22:59;23.37;;;10.00;;
40599;SDS011;26309;50.924;4.754;2023-04-08T03:25:25;21.50;;;9.13;;
40599;SDS011;26309;50.924;4.754;2023-04-08T03:27:53;26.87;;;10.43;;
40599;SDS011;26309;50.924;4.754;2023-04-08T03:30:22;31.50;;;10.70;;
40599;SDS011;26309;50.924;4.754;2023-04-08T03:32:48;24.07;;;10.27;;
40599;SDS011;26309;50.924;4.754;2023-04-08T03:35:14;22.40;;;10.20;;
40599;SDS011;26309;50.924;4.754;2023-04-08T03:37:40;26.67;;;11.40;;
40599;SDS011;26309;50.924;4.754;2023-04-08T03:40:06;37.30;;;10.83;;
40599;SDS011;26309;50.924;4.754;2023-04-08T03:42:33;24.17;;;9.73;;
40599;SDS011;26309;50.924;4.754;2023-04-08T03:44:59;21.97;;;9.90;;
40599;SDS011;26309;50.924;4.754;2023-04-08T03:47:25;28.77;;;10.07;;
40599;SDS011;26309;50.924;4.754;2023-04-08T03:49:51;23.48;;;9.43;;
40599;SDS011;26309;50.924;4.754;2023-04-08T03:52:19;23.67;;;8.60;;
40599;SDS011;26309;50.924;4.754;2023-04-08T03:54:44;24.02;;;11.02;;
40599;SDS011;26309;50.924;4.754;2023-04-08T03:57:10;27.63;;;12.53;;
40599;SDS011;26309;50.924;4.754;2023-04-08T03:59:36;18.73;;;9.70;;
40599;SDS011;26309;50.924;4.754;2023-04-08T04:02:03;20.37;;;8.27;;
40599;SDS011;26309;50.924;4.754;2023-04-08T04:04:29;33.23;;;13.63;;
40599;SDS011;26309;50.924;4.754;2023-04-08T04:06:55;21.47;;;8.70;;
40599;SDS011;26309;50.924;4.754;2023-04-08T04:09:21;23.38;;;7.95;;
40599;SDS011;26309;50.924;4.754;2023-04-08T04:11:47;21.43;;;9.10;;
40599;SDS011;26309;50.924;4.754;2023-04-08T04:14:13;26.10;;;11.20;;
40599;SDS011;26309;50.924;4.754;2023-04-08T04:16:38;21.93;;;9.87;;
40599;SDS011;26309;50.924;4.754;2023-04-08T04:19:04;27.00;;;11.30;;
40599;SDS011;26309;50.924;4.754;2023-04-08T04:21:30;21.80;;;10.10;;
40599;SDS011;26309;50.924;4.754;2023-04-08T04:23:56;21.48;;;10.15;;
40599;SDS011;26309;50.924;4.754;2023-04-08T04:26:22;22.30;;;10.47;;
40599;SDS011;26309;50.924;4.754;2023-04-08T04:28:48;28.90;;;11.60;;
40599;SDS011;26309;50.924;4.754;2023-04-08T04:31:20;23.97;;;11.63;;
40599;SDS011;26309;50.924;4.754;2023-04-08T04:33:47;20.20;;;11.00;;
40599;SDS011;26309;50.924;4.754;2023-04-08T04:36:13;27.83;;;11.20;;
40599;SDS011;26309;50.924;4.754;2023-04-08T04:38:40;31.53;;;13.13;;
40599;SDS011;26309;50.924;4.754;2023-04-08T04:41:07;36.05;;;14.23;;
40599;SDS011;26309;50.924;4.754;2023-04-08T04:43:32;29.17;;;14.00;;
40599;SDS011;26309;50.924;4.754;2023-04-08T04:45:58;30.95;;;16.25;;
40599;SDS011;26309;50.924;4.754;2023-04-08T04:48:25;33.08;;;14.77;;
40599;SDS011;26309;50.924;4.754;2023-04-08T04:50:54;24.93;;;13.33;;
40599;SDS011;26309;50.924;4.754;2023-04-08T04:53:21;35.60;;;13.57;;
40599;SDS011;26309;50.924;4.754;2023-04-08T04:55:46;34.23;;;12.70;;
40599;SDS011;26309;50.924;4.754;2023-04-08T04:58:12;27.67;;;11.97;;
40599;SDS011;26309;50.924;4.754;2023-04-08T05:00:39;32.10;;;13.17;;
40599;SDS011;26309;50.924;4.754;2023-04-08T05:03:05;33.33;;;16.02;;
40599;SDS011;26309;50.924;4.754;2023-04-08T05:05:31;29.88;;;14.70;;
40599;SDS011;26309;50.924;4.754;2023-04-08T05:07:56;30.90;;;13.50;;
40599;SDS011;26309;50.924;4.754;2023-04-08T05:10:23;29.47;;;14.43;;
40599;SDS011;26309;50.924;4.754;2023-04-08T05:12:50;32.63;;;16.17;;
40599;SDS011;26309;50.924;4.754;2023-04-08T05:15:15;34.07;;;15.57;;
40599;SDS011;26309;50.924;4.754;2023-04-08T05:17:41;36.40;;;17.23;;
40599;SDS011;26309;50.924;4.754;2023-04-08T05:20:07;36.37;;;16.33;;
40599;SDS011;26309;50.924;4.754;2023-04-08T05:22:33;22.03;;;12.03;;
40599;SDS011;26309;50.924;4.754;2023-04-08T05:24:59;34.77;;;16.70;;
40599;SDS011;26309;50.924;4.754;2023-04-08T05:27:25;47.03;;;17.63;;
40599;SDS011;26309;50.924;4.754;2023-04-08T05:29:51;39.00;;;18.93;;
40599;SDS011;26309;50.924;4.754;2023-04-08T05:32:17;43.20;;;18.43;;
40599;SDS011;26309;50.924;4.754;2023-04-08T05:34:43;40.70;;;18.07;;
40599;SDS011;26309;50.924;4.754;2023-04-08T05:37:09;32.07;;;15.63;;
40599;SDS011;26309;50.924;4.754;2023-04-08T05:39:35;31.03;;;15.10;;
40599;SDS011;26309;50.924;4.754;2023-04-08T05:42:01;33.60;;;15.60;;
40599;SDS011;26309;50.924;4.754;2023-04-08T05:44:27;31.75;;;15.77;;
40599;SDS011;26309;50.924;4.754;2023-04-08T05:46:53;32.77;;;14.43;;
40599;SDS011;26309;50.924;4.754;2023-04-08T05:49:20;31.97;;;16.47;;
40599;SDS011;26309;50.924;4.754;2023-04-08T05:51:46;41.33;;;16.57;;
40599;SDS011;26309;50.924;4.754;2023-04-08T05:54:11;39.13;;;18.73;;
40599;SDS011;26309;50.924;4.754;2023-04-08T05:56:37;45.27;;;18.73;;
40599;SDS011;26309;50.924;4.754;2023-04-08T05:59:03;41.53;;;20.47;;
40599;SDS011;26309;50.924;4.754;2023-04-08T06:01:29;44.60;;;19.63;;
40599;SDS011;26309;50.924;4.754;2023-04-08T06:03:55;43.47;;;20.17;;
40599;SDS011;26309;50.924;4.754;2023-04-08T06:06:21;41.20;;;18.77;;
40599;SDS011;26309;50.924;4.754;2023-04-08T06:08:47;42.30;;;18.90;;
40599;SDS011;26309;50.924;4.754;2023-04-08T06:11:13;39.88;;;19.85;;
40599;SDS011;26309;50.924;4.754;2023-04-08T06:13:39;37.17;;;19.77;;
40599;SDS011;26309;50.924;4.754;2023-04-08T06:16:10;36.57;;;19.83;;
40599;SDS011;26309;50.924;4.754;2023-04-08T06:18:37;41.80;;;21.77;;
40599;SDS011;26309;50.924;4.754;2023-04-08T06:21:03;44.13;;;21.08;;
40599;SDS011;26309;50.924;4.754;2023-04-08T06:23:29;46.95;;;21.58;;
40599;SDS011;26309;50.924;4.754;2023-04-08T06:25:55;47.40;;;21.42;;
40599;SDS011;26309;50.924;4.754;2023-04-08T06:28:21;45.40;;;20.63;;
40599;SDS011;26309;50.924;4.754;2023-04-08T06:30:47;38.25;;;22.23;;
40599;SDS011;26309;50.924;4.754;2023-04-08T06:33:16;41.85;;;20.95;;
40599;SDS011;26309;50.924;4.754;2023-04-08T06:35:41;43.28;;;21.42;;
40599;SDS011;26309;50.924;4.754;2023-04-08T06:38:07;44.88;;;21.67;;
40599;SDS011;26309;50.924;4.754;2023-04-08T06:40:33;42.58;;;21.58;;
40599;SDS011;26309;50.924;4.754;2023-04-08T06:43:00;38.45;;;21.50;;
40599;SDS011;26309;50.924;4.754;2023-04-08T06:45:26;43.55;;;20.50;;
40599;SDS011;26309;50.924;4.754;2023-04-08T06:47:52;47.40;;;19.75;;
40599;SDS011;26309;50.924;4.754;2023-04-08T06:50:20;44.00;;;21.75;;
40599;SDS011;26309;50.924;4.754;2023-04-08T06:52:46;35.20;;;20.95;;
40599;SDS011;26309;50.924;4.754;2023-04-08T06:55:12;37.05;;;20.33;;
40599;SDS011;26309;50.924;4.754;2023-04-08T06:57:38;41.80;;;21.33;;
40599;SDS011;26309;50.924;4.754;2023-04-08T07:00:04;39.90;;;20.00;;
40599;SDS011;26309;50.924;4.754;2023-04-08T07:02:30;35.92;;;19.38;;
40599;SDS011;26309;50.924;4.754;2023-04-08T07:04:56;49.10;;;21.10;;
40599;SDS011;26309;50.924;4.754;2023-04-08T07:07:22;40.13;;;19.55;;
40599;SDS011;26309;50.924;4.754;2023-04-08T07:09:48;35.40;;;17.50;;
40599;SDS011;26309;50.924;4.754;2023-04-08T07:12:15;38.35;;;20.13;;
40599;SDS011;26309;50.924;4.754;2023-04-08T07:14:41;39.83;;;20.38;;
40599;SDS011;26309;50.924;4.754;2023-04-08T07:17:07;37.95;;;20.23;;
40599;SDS011;26309;50.924;4.754;2023-04-08T07:19:33;34.17;;;17.38;;
40599;SDS011;26309;50.924;4.754;2023-04-08T07:21:59;34.05;;;18.75;;
40599;SDS011;26309;50.924;4.754;2023-04-08T07:24:24;28.02;;;17.42;;
40599;SDS011;26309;50.924;4.754;2023-04-08T07:26:51;29.33;;;14.77;;
40599;SDS011;26309;50.924;4.754;2023-04-08T07:29:17;30.08;;;16.48;;
40599;SDS011;26309;50.924;4.754;2023-04-08T07:31:43;31.13;;;16.98;;
40599;SDS011;26309;50.924;4.754;2023-04-08T07:34:09;34.88;;;18.20;;
40599;SDS011;26309;50.924;4.754;2023-04-08T07:36:34;32.50;;;16.88;;
40599;SDS011;26309;50.924;4.754;2023-04-08T07:39:00;24.30;;;15.93;;
40599;SDS011;26309;50.924;4.754;2023-04-08T07:41:27;23.02;;;13.80;;
40599;SDS011;26309;50.924;4.754;2023-04-08T07:43:53;22.50;;;14.13;;
40599;SDS011;26309;50.924;4.754;2023-04-08T07:46:19;33.28;;;15.55;;
40599;SDS011;26309;50.924;4.754;2023-04-08T07:48:45;28.90;;;15.48;;
40599;SDS011;26309;50.924;4.754;2023-04-08T07:51:12;20.52;;;13.32;;
40599;SDS011;26309;50.924;4.754;2023-04-08T07:53:38;26.58;;;14.57;;
40599;SDS011;26309;50.924;4.754;2023-04-08T07:56:11;19.77;;;11.98;;
40599;SDS011;26309;50.924;4.754;2023-04-08T07:58:41;22.25;;;13.52;;
40599;SDS011;26309;50.924;4.754;2023-04-08T08:01:17;24.67;;;14.32;;
40599;SDS011;26309;50.924;4.754;2023-04-08T08:03:45;22.90;;;13.57;;
40599;SDS011;26309;50.924;4.754;2023-04-08T08:06:11;22.73;;;13.35;;
40599;SDS011;26309;50.924;4.754;2023-04-08T08:08:37;23.33;;;13.63;;
40599;SDS011;26309;50.924;4.754;2023-04-08T08:11:03;23.70;;;11.15;;
40599;SDS011;26309;50.924;4.754;2023-04-08T08:13:29;14.50;;;9.57;;
40599;SDS011;26309;50.924;4.754;2023-04-08T08:15:55;16.02;;;10.00;;
40599;SDS011;26309;50.924;4.754;2023-04-08T08:18:21;21.15;;;11.27;;
40599;SDS011;26309;50.924;4.754;2023-04-08T08:20:47;18.50;;;10.63;;
40599;SDS011;26309;50.924;4.754;2023-04-08T08:23:13;22.17;;;12.48;;
40599;SDS011;26309;50.924;4.754;2023-04-08T08:25:38;18.67;;;13.50;;
40599;SDS011;26309;50.924;4.754;2023-04-08T08:28:04;22.80;;;13.05;;
40599;SDS011;26309;50.924;4.754;2023-04-08T08:30:31;18.77;;;13.32;;
40599;SDS011;26309;50.924;4.754;2023-04-08T08:32:56;22.77;;;14.05;;
40599;SDS011;26309;50.924;4.754;2023-04-08T08:35:31;22.63;;;13.52;;
40599;SDS011;26309;50.924;4.754;2023-04-08T08:37:57;30.65;;;15.40;;
40599;SDS011;26309;50.924;4.754;2023-04-08T08:40:23;25.50;;;15.82;;
40599;SDS011;26309;50.924;4.754;2023-04-08T08:42:49;28.70;;;17.38;;
40599;SDS011;26309;50.924;4.754;2023-04-08T08:45:17;24.83;;;15.50;;
40599;SDS011;26309;50.924;4.754;2023-04-08T08:47:47;29.35;;;14.38;;
40599;SDS011;26309;50.924;4.754;2023-04-08T08:50:13;27.40;;;14.02;;
40599;SDS011;26309;50.924;4.754;2023-04-08T08:52:46;20.55;;;12.05;;
40599;SDS011;26309;50.924;4.754;2023-04-08T08:55:19;18.80;;;11.27;;
40599;SDS011;26309;50.924;4.754;2023-04-08T08:57:48;20.77;;;11.90;;
40599;SDS011;26309;50.924;4.754;2023-04-08T09:00:15;19.30;;;11.20;;
40599;SDS011;26309;50.924;4.754;2023-04-08T09:02:42;20.40;;;10.63;;
40599;SDS011;26309;50.924;4.754;2023-04-08T09:05:08;16.27;;;10.27;;
40599;SDS011;26309;50.924;4.754;2023-04-08T09:07:35;16.48;;;10.32;;
40599;SDS011;26309;50.924;4.754;2023-04-08T09:10:01;14.18;;;9.68;;
40599;SDS011;26309;50.924;4.754;2023-04-08T09:12:28;9.48;;;8.30;;
40599;SDS011;26309;50.924;4.754;2023-04-08T09:15:08;15.13;;;8.85;;
40599;SDS011;26309;50.924;4.754;2023-04-08T09:17:38;11.80;;;8.40;;
40599;SDS011;26309;50.924;4.754;2023-04-08T09:20:09;15.07;;;9.38;;
40599;SDS011;26309;50.924;4.754;2023-04-08T09:22:55;13.23;;;9.68;;
40599;SDS011;26309;50.924;4.754;2023-04-08T09:25:23;13.15;;;8.65;;
40599;SDS011;26309;50.924;4.754;2023-04-08T09:27:52;14.95;;;9.00;;
40599;SDS011;26309;50.924;4.754;2023-04-08T09:30:19;14.63;;;8.52;;
40599;SDS011;26309;50.924;4.754;2023-04-08T09:32:47;15.32;;;8.75;;
40599;SDS011;26309;50.924;4.754;2023-04-08T09:35:14;13.20;;;7.90;;
40599;SDS011;26309;50.924;4.754;2023-04-08T09:37:41;13.35;;;7.82;;
40599;SDS011;26309;50.924;4.754;2023-04-08T09:40:07;12.90;;;7.68;;
40599;SDS011;26309;50.924;4.754;2023-04-08T09:42:34;11.68;;;8.38;;
40599;SDS011;26309;50.924;4.754;2023-04-08T09:45:04;18.23;;;10.25;;
40599;SDS011;26309;50.924;4.754;2023-04-08T09:50:42;19.00;;;11.07;;
40599;SDS011;26309;50.924;4.754;2023-04-08T09:53:18;21.63;;;12.68;;
40599;SDS011;26309;50.924;4.754;2023-04-08T09:55:52;21.60;;;12.90;;
40599;SDS011;26309;50.924;4.754;2023-04-08T09:58:24;17.50;;;10.52;;
40599;SDS011;26309;50.924;4.754;2023-04-08T10:00:53;16.60;;;10.73;;
40599;SDS011;26309;50.924;4.754;2023-04-08T10:03:32;16.10;;;10.80;;
40599;SDS011;26309;50.924;4.754;2023-04-08T10:06:10;19.23;;;10.52;;
40599;SDS011;26309;50.924;4.754;2023-04-08T10:08:36;15.15;;;10.07;;
40599;SDS011;26309;50.924;4.754;2023-04-08T10:11:02;18.73;;;10.45;;
40599;SDS011;26309;50.924;4.754;2023-04-08T10:13:28;14.25;;;9.73;;
40599;SDS011;26309;50.924;4.754;2023-04-08T10:18:43;14.82;;;9.63;;
40599;SDS011;26309;50.924;4.754;2023-04-08T10:24:15;11.85;;;7.22;;
40599;SDS011;26309;50.924;4.754;2023-04-08T10:26:43;9.35;;;7.68;;
40599;SDS011;26309;50.924;4.754;2023-04-08T10:31:50;16.83;;;9.48;;
40599;SDS011;26309;50.924;4.754;2023-04-08T10:34:17;11.30;;;8.77;;
40599;SDS011;26309;50.924;4.754;2023-04-08T10:36:43;11.10;;;8.25;;
40599;SDS011;26309;50.924;4.754;2023-04-08T10:39:09;13.68;;;8.57;;
40599;SDS011;26309;50.924;4.754;2023-04-08T10:41:41;10.70;;;8.38;;
40599;SDS011;26309;50.924;4.754;2023-04-08T10:44:17;13.95;;;9.40;;
40599;SDS011;26309;50.924;4.754;2023-04-08T10:46:48;15.05;;;9.27;;
40599;SDS011;26309;50.924;4.754;2023-04-08T10:49:15;12.50;;;8.98;;
40599;SDS011;26309;50.924;4.754;2023-04-08T10:51:44;11.25;;;8.95;;
40599;SDS011;26309;50.924;4.754;2023-04-08T10:54:11;12.02;;;8.32;;
40599;SDS011;26309;50.924;4.754;2023-04-08T10:56:43;14.38;;;8.80;;
40599;SDS011;26309;50.924;4.754;2023-04-08T10:59:21;10.88;;;8.95;;
40599;SDS011;26309;50.924;4.754;2023-04-08T11:01:52;11.40;;;7.95;;
40599;SDS011;26309;50.924;4.754;2023-04-08T11:04:19;10.27;;;8.00;;
40599;SDS011;26309;50.924;4.754;2023-04-08T11:06:47;15.45;;;9.73;;
40599;SDS011;26309;50.924;4.754;2023-04-08T11:09:14;11.35;;;8.55;;
40599;SDS011;26309;50.924;4.754;2023-04-08T11:11:44;15.70;;;10.30;;
40599;SDS011;26309;50.924;4.754;2023-04-08T11:14:11;14.00;;;10.13;;
40599;SDS011;26309;50.924;4.754;2023-04-08T11:16:37;14.30;;;10.10;;
40599;SDS011;26309;50.924;4.754;2023-04-08T11:19:05;17.65;;;10.98;;
40599;SDS011;26309;50.924;4.754;2023-04-08T11:21:37;16.45;;;11.25;;
40599;SDS011;26309;50.924;4.754;2023-04-08T11:24:09;14.63;;;10.50;;
40599;SDS011;26309;50.924;4.754;2023-04-08T11:26:36;15.70;;;11.05;;
40599;SDS011;26309;50.924;4.754;2023-04-08T11:29:02;14.40;;;10.32;;
40599;SDS011;26309;50.924;4.754;2023-04-08T11:31:31;12.88;;;10.00;;
40599;SDS011;26309;50.924;4.754;2023-04-08T11:33:57;18.48;;;13.15;;
40599;SDS011;26309;50.924;4.754;2023-04-08T11:36:23;16.63;;;13.65;;
40599;SDS011;26309;50.924;4.754;2023-04-08T11:38:49;17.67;;;13.52;;
40599;SDS011;26309;50.924;4.754;2023-04-08T11:41:17;23.15;;;15.63;;
40599;SDS011;26309;50.924;4.754;2023-04-08T11:43:53;25.23;;;15.77;;
40599;SDS011;26309;50.924;4.754;2023-04-08T11:46:21;21.15;;;15.38;;
40599;SDS011;26309;50.924;4.754;2023-04-08T11:48:57;22.20;;;15.82;;
40599;SDS011;26309;50.924;4.754;2023-04-08T11:51:28;22.17;;;15.50;;
40599;SDS011;26309;50.924;4.754;2023-04-08T11:53:54;21.23;;;16.02;;
40599;SDS011;26309;50.924;4.754;2023-04-08T11:56:22;26.60;;;17.20;;
40599;SDS011;26309;50.924;4.754;2023-04-08T11:58:48;25.95;;;18.60;;
40599;SDS011;26309;50.924;4.754;2023-04-08T12:01:15;23.70;;;17.35;;
40599;SDS011;26309;50.924;4.754;2023-04-08T12:03:54;22.63;;;17.35;;
40599;SDS011;26309;50.924;4.754;2023-04-08T12:06:26;26.85;;;17.50;;
40599;SDS011;26309;50.924;4.754;2023-04-08T12:08:54;23.90;;;18.00;;
40599;SDS011;26309;50.924;4.754;2023-04-08T12:11:20;25.05;;;18.48;;
40599;SDS011;26309;50.924;4.754;2023-04-08T12:13:46;26.55;;;18.58;;
40599;SDS011;26309;50.924;4.754;2023-04-08T12:16:16;36.17;;;22.98;;
40599;SDS011;26309;50.924;4.754;2023-04-08T12:18:43;34.22;;;23.50;;
40599;SDS011;26309;50.924;4.754;2023-04-08T12:21:09;32.97;;;22.80;;
40599;SDS011;26309;50.924;4.754;2023-04-08T12:23:35;33.63;;;24.17;;
40599;SDS011;26309;50.924;4.754;2023-04-08T12:26:02;35.03;;;23.70;;
40599;SDS011;26309;50.924;4.754;2023-04-08T12:28:28;33.22;;;24.33;;
40599;SDS011;26309;50.924;4.754;2023-04-08T12:30:54;36.08;;;24.73;;
40599;SDS011;26309;50.924;4.754;2023-04-08T12:33:20;35.83;;;24.35;;
40599;SDS011;26309;50.924;4.754;2023-04-08T12:35:46;36.83;;;26.33;;
40599;SDS011;26309;50.924;4.754;2023-04-08T12:38:12;34.47;;;24.42;;
40599;SDS011;26309;50.924;4.754;2023-04-08T12:40:38;32.67;;;24.85;;
40599;SDS011;26309;50.924;4.754;2023-04-08T12:43:03;35.50;;;24.95;;
40599;SDS011;26309;50.924;4.754;2023-04-08T12:45:29;31.80;;;24.80;;
40599;SDS011;26309;50.924;4.754;2023-04-08T12:47:56;33.75;;;24.67;;
40599;SDS011;26309;50.924;4.754;2023-04-08T12:50:23;35.33;;;24.80;;
40599;SDS011;26309;50.924;4.754;2023-04-08T12:52:49;31.95;;;23.02;;
40599;SDS011;26309;50.924;4.754;2023-04-08T12:55:15;37.22;;;23.98;;
40599;SDS011;26309;50.924;4.754;2023-04-08T12:57:42;37.20;;;24.98;;
40599;SDS011;26309;50.924;4.754;2023-04-08T13:00:08;34.10;;;24.55;;
40599;SDS011;26309;50.924;4.754;2023-04-08T13:02:35;35.65;;;23.98;;
40599;SDS011;26309;50.924;4.754;2023-04-08T13:05:01;34.13;;;24.25;;
40599;SDS011;26309;50.924;4.754;2023-04-08T13:07:27;33.72;;;24.20;;
40599;SDS011;26309;50.924;4.754;2023-04-08T13:09:54;33.90;;;23.38;;
40599;SDS011;26309;50.924;4.754;2023-04-08T13:12:20;35.00;;;23.08;;
40599;SDS011;26309;50.924;4.754;2023-04-08T13:14:46;30.45;;;22.90;;
40599;SDS011;26309;50.924;4.754;2023-04-08T13:17:14;30.63;;;21.60;;
40599;SDS011;26309;50.924;4.754;2023-04-08T13:19:40;30.90;;;21.83;;
40599;SDS011;26309;50.924;4.754;2023-04-08T13:22:07;27.13;;;20.40;;
40599;SDS011;26309;50.924;4.754;2023-04-08T13:24:32;29.60;;;20.42;;
40599;SDS011;26309;50.924;4.754;2023-04-08T13:26:59;26.65;;;20.02;;
40599;SDS011;26309;50.924;4.754;2023-04-08T13:29:25;21.83;;;17.88;;
40599;SDS011;26309;50.924;4.754;2023-04-08T13:31:53;27.55;;;19.63;;
40599;SDS011;26309;50.924;4.754;2023-04-08T13:34:19;27.30;;;19.73;;
40599;SDS011;26309;50.924;4.754;2023-04-08T13:36:45;28.17;;;19.85;;
40599;SDS011;26309;50.924;4.754;2023-04-08T13:39:11;26.73;;;20.02;;
40599;SDS011;26309;50.924;4.754;2023-04-08T13:41:37;26.33;;;19.23;;
40599;SDS011;26309;50.924;4.754;2023-04-08T13:44:02;25.80;;;18.92;;
40599;SDS011;26309;50.924;4.754;2023-04-08T13:46:29;25.48;;;19.38;;
40599;SDS011;26309;50.924;4.754;2023-04-08T13:48:55;22.98;;;17.50;;
40599;SDS011;26309;50.924;4.754;2023-04-08T13:51:21;22.90;;;18.35;;
40599;SDS011;26309;50.924;4.754;2023-04-08T13:53:47;26.83;;;18.67;;
40599;SDS011;26309;50.924;4.754;2023-04-08T13:56:12;24.20;;;18.98;;
40599;SDS011;26309;50.924;4.754;2023-04-08T13:58:38;25.02;;;18.13;;
40599;SDS011;26309;50.924;4.754;2023-04-08T14:01:05;23.77;;;17.92;;
40599;SDS011;26309;50.924;4.754;2023-04-08T14:03:31;23.75;;;17.80;;
40599;SDS011;26309;50.924;4.754;2023-04-08T14:05:57;25.77;;;17.67;;
40599;SDS011;26309;50.924;4.754;2023-04-08T14:08:23;25.40;;;17.85;;
40599;SDS011;26309;50.924;4.754;2023-04-08T14:10:54;22.85;;;17.75;;
40599;SDS011;26309;50.924;4.754;2023-04-08T14:13:22;22.63;;;16.88;;
40599;SDS011;26309;50.924;4.754;2023-04-08T14:15:47;22.25;;;17.00;;
40599;SDS011;26309;50.924;4.754;2023-04-08T14:18:14;24.10;;;17.73;;
40599;SDS011;26309;50.924;4.754;2023-04-08T14:20:42;22.98;;;17.27;;
40599;SDS011;26309;50.924;4.754;2023-04-08T14:23:08;20.65;;;16.48;;
40599;SDS011;26309;50.924;4.754;2023-04-08T14:25:35;23.85;;;17.40;;
40599;SDS011;26309;50.924;4.754;2023-04-08T14:28:01;21.27;;;17.75;;
40599;SDS011;26309;50.924;4.754;2023-04-08T14:30:27;23.48;;;17.05;;
40599;SDS011;26309;50.924;4.754;2023-04-08T14:32:53;21.65;;;16.42;;
40599;SDS011;26309;50.924;4.754;2023-04-08T14:35:19;21.25;;;16.02;;
40599;SDS011;26309;50.924;4.754;2023-04-08T14:37:46;19.83;;;15.23;;
40599;SDS011;26309;50.924;4.754;2023-04-08T14:40:12;18.67;;;14.95;;
40599;SDS011;26309;50.924;4.754;2023-04-08T14:42:38;22.40;;;16.83;;